createdAt,value
2023-07-26T00:02:13.533Z,2.80
2023-07-26T00:04:41.491Z,3.30
2023-07-26T00:07:09.497Z,3.78
2023-07-26T00:09:37.629Z,4.78
2023-07-26T00:12:05.827Z,3.65
2023-07-26T00:14:34.204Z,4.70
2023-07-26T00:17:02.176Z,3.85
2023-07-26T00:19:31.431Z,3.15
2023-07-26T00:21:59.442Z,5.57
2023-07-26T00:24:27.468Z,5.68
2023-07-26T00:26:55.443Z,3.95
2023-07-26T00:29:23.480Z,6.30
2023-07-26T00:31:51.537Z,3.83
2023-07-26T00:34:19.661Z,4.03
2023-07-26T00:36:49.030Z,3.67
2023-07-26T00:39:17.328Z,4.85
2023-07-26T00:41:45.341Z,4.47
2023-07-26T00:44:13.368Z,4.97
2023-07-26T00:46:41.677Z,3.00
2023-07-26T00:49:10.114Z,4.45
2023-07-26T00:51:40.505Z,3.08
2023-07-26T00:54:11.632Z,3.67
2023-07-26T00:56:39.735Z,3.38
2023-07-26T00:59:08.003Z,4.90
2023-07-26T01:01:36.558Z,3.38
2023-07-26T01:04:04.805Z,5.07
2023-07-26T01:06:38.512Z,3.75
2023-07-26T01:09:09.751Z,5.25
2023-07-26T01:11:41.691Z,4.13
2023-07-26T01:14:14.141Z,6.00
2023-07-26T01:16:43.908Z,5.45
2023-07-26T01:19:12.022Z,8.18
2023-07-26T01:21:41.289Z,6.20
2023-07-26T01:24:09.372Z,7.10
2023-07-26T01:26:37.370Z,5.20
2023-07-26T01:29:05.392Z,7.18
2023-07-26T01:31:34.100Z,7.13
2023-07-26T01:34:03.855Z,4.47
2023-07-26T01:36:32.008Z,4.75
2023-07-26T01:39:01.524Z,4.10
2023-07-26T01:41:29.912Z,4.25
2023-07-26T01:43:58.229Z,5.13
2023-07-26T01:46:26.297Z,6.18
2023-07-26T01:48:54.273Z,5.43
2023-07-26T01:51:22.205Z,5.85
2023-07-26T01:53:50.210Z,6.15
2023-07-26T01:56:19.887Z,5.95
2023-07-26T01:58:48.840Z,6.47
2023-07-26T02:01:16.937Z,5.45
2023-07-26T02:03:44.914Z,6.65
2023-07-26T02:06:13.889Z,5.90
2023-07-26T02:08:42.022Z,7.32
2023-07-26T02:11:10.020Z,4.93
2023-07-26T02:13:39.457Z,5.93
2023-07-26T02:16:07.622Z,5.75
2023-07-26T02:18:35.626Z,9.73
2023-07-26T02:21:03.680Z,5.72
2023-07-26T02:23:31.957Z,6.18
2023-07-26T02:26:00.002Z,6.53
2023-07-26T02:28:28.024Z,5.43
2023-07-26T02:30:57.393Z,7.32
2023-07-26T02:33:25.354Z,8.05
2023-07-26T02:35:53.336Z,6.75
2023-07-26T02:38:21.279Z,8.45
2023-07-26T02:40:49.388Z,9.80
2023-07-26T02:43:23.935Z,9.27
2023-07-26T02:46:04.487Z,7.75
2023-07-26T02:48:32.675Z,7.57
2023-07-26T02:51:01.177Z,7.38
2023-07-26T02:53:29.269Z,7.60
2023-07-26T02:55:57.210Z,7.53
2023-07-26T02:58:25.534Z,8.07
2023-07-26T03:00:53.931Z,7.40
2023-07-26T03:03:23.468Z,8.75
2023-07-26T03:05:51.460Z,8.80
2023-07-26T03:08:19.420Z,8.50
2023-07-26T03:10:47.406Z,8.70
2023-07-26T03:13:15.456Z,10.63
2023-07-26T03:15:43.649Z,10.05
2023-07-26T03:18:11.841Z,10.85
2023-07-26T03:20:41.118Z,9.05
2023-07-26T03:23:09.113Z,10.30
2023-07-26T03:25:37.143Z,10.30
2023-07-26T03:28:05.468Z,9.98
2023-07-26T03:30:33.484Z,11.40
2023-07-26T03:33:01.454Z,10.60
2023-07-26T03:35:30.810Z,10.88
2023-07-26T03:38:00.273Z,8.82
2023-07-26T03:40:28.413Z,10.02
2023-07-26T03:42:56.421Z,10.35
2023-07-26T03:45:24.600Z,13.05
2023-07-26T03:47:52.646Z,11.23
2023-07-26T03:50:22.052Z,12.00
2023-07-26T03:52:50.491Z,13.30
2023-07-26T03:55:19.818Z,13.02
2023-07-26T03:57:47.753Z,10.77
2023-07-26T04:00:15.908Z,12.02
2023-07-26T04:02:43.958Z,9.32
2023-07-26T04:05:13.051Z,10.50
2023-07-26T04:07:41.584Z,11.00
2023-07-26T04:10:09.877Z,9.73
2023-07-26T04:12:39.397Z,10.65
2023-07-26T04:15:08.108Z,10.27
2023-07-26T04:17:36.174Z,11.20
2023-07-26T04:20:04.606Z,11.27
2023-07-26T04:22:32.608Z,10.77
2023-07-26T04:25:01.086Z,12.38
2023-07-26T04:27:29.120Z,9.95
2023-07-26T04:29:58.496Z,12.52
2023-07-26T04:32:26.474Z,10.20
2023-07-26T04:34:54.377Z,10.82
2023-07-26T04:37:23.695Z,10.07
2023-07-26T04:39:51.826Z,10.43
2023-07-26T04:42:20.187Z,9.60
2023-07-26T04:44:48.751Z,10.43
2023-07-26T04:47:20.077Z,12.63
2023-07-26T04:52:15.762Z,11.25
2023-07-26T04:54:44.140Z,15.15
2023-07-26T04:57:12.199Z,11.80
2023-07-26T04:59:40.142Z,11.30
2023-07-26T05:02:08.101Z,12.25
2023-07-26T05:04:37.575Z,10.40
2023-07-26T05:07:05.844Z,12.73
2023-07-26T05:09:33.844Z,14.25
2023-07-26T05:12:01.810Z,12.40
2023-07-26T05:14:29.803Z,12.40
2023-07-26T05:16:57.945Z,12.50
2023-07-26T05:19:26.081Z,12.07
2023-07-26T05:21:55.417Z,12.68
2023-07-26T05:24:23.435Z,12.60
2023-07-26T05:26:51.471Z,13.27
2023-07-26T05:29:19.383Z,13.80
2023-07-26T05:31:47.474Z,13.55
2023-07-26T05:34:16.815Z,12.77
2023-07-26T05:36:44.819Z,13.68
2023-07-26T05:39:14.143Z,15.80
2023-07-26T05:41:42.100Z,11.07
2023-07-26T05:44:10.413Z,14.77
2023-07-26T05:46:38.450Z,12.35
2023-07-26T05:49:07.063Z,12.73
2023-07-26T05:51:35.300Z,11.05
2023-07-26T05:54:03.343Z,11.32
2023-07-26T05:56:32.687Z,12.65
2023-07-26T05:59:00.923Z,12.27
2023-07-26T06:01:29.164Z,12.80
2023-07-26T06:03:57.216Z,12.45
2023-07-26T06:06:25.282Z,10.75
2023-07-26T06:08:53.747Z,11.45
2023-07-26T06:11:21.705Z,10.38
2023-07-26T06:13:51.120Z,10.10
2023-07-26T06:16:19.618Z,13.60
2023-07-26T06:18:47.696Z,10.77
2023-07-26T06:21:16.308Z,8.85
2023-07-26T06:23:44.462Z,9.50
2023-07-26T06:26:12.640Z,10.70
2023-07-26T06:28:40.564Z,10.20
2023-07-26T06:31:10.033Z,9.27
2023-07-26T06:33:38.006Z,10.93
2023-07-26T06:36:08.009Z,10.38
2023-07-26T06:38:36.138Z,11.23
2023-07-26T06:41:05.603Z,10.15
2023-07-26T06:43:33.583Z,10.20
2023-07-26T06:46:01.585Z,8.43
2023-07-26T06:48:31.007Z,9.32
2023-07-26T06:50:58.983Z,11.10
2023-07-26T06:53:26.926Z,9.55
2023-07-26T06:55:58.866Z,11.18
2023-07-26T06:58:27.035Z,9.23
2023-07-26T07:00:55.836Z,7.93
2023-07-26T07:03:24.133Z,9.27
2023-07-26T07:05:53.508Z,10.65
2023-07-26T07:08:21.492Z,9.75
2023-07-26T07:10:49.494Z,9.55
2023-07-26T07:13:17.672Z,9.35
2023-07-26T07:15:45.586Z,13.63
2023-07-26T07:18:16.275Z,9.82
2023-07-26T07:20:44.779Z,12.52
2023-07-26T07:23:14.082Z,10.60
2023-07-26T07:25:42.040Z,8.82
2023-07-26T07:28:10.108Z,11.30
2023-07-26T07:30:38.039Z,10.43
2023-07-26T07:33:06.127Z,10.95
2023-07-26T07:35:34.222Z,12.27
2023-07-26T07:38:02.171Z,12.63
2023-07-26T07:40:31.462Z,12.07
2023-07-26T07:42:59.419Z,9.77
2023-07-26T07:45:27.460Z,12.00
2023-07-26T07:47:55.516Z,11.25
2023-07-26T07:50:23.665Z,14.88
2023-07-26T07:52:51.690Z,13.93
2023-07-26T07:55:19.677Z,17.38
2023-07-26T07:57:49.064Z,11.65
2023-07-26T08:00:17.729Z,11.93
2023-07-26T08:02:45.732Z,13.50
2023-07-26T08:05:13.825Z,12.18
2023-07-26T08:07:41.823Z,13.57
2023-07-26T08:10:10.238Z,12.05
2023-07-26T08:12:38.244Z,11.73
2023-07-26T08:15:08.063Z,12.32
2023-07-26T08:17:36.089Z,13.45
2023-07-26T08:20:05.336Z,12.68
2023-07-26T08:22:33.489Z,13.30
2023-07-26T08:25:02.030Z,13.25
2023-07-26T08:27:30.717Z,14.65
2023-07-26T08:29:58.712Z,15.68
2023-07-26T08:32:28.085Z,14.82
2023-07-26T08:34:56.091Z,10.65
2023-07-26T08:37:24.145Z,13.93
2023-07-26T08:39:52.187Z,10.57
2023-07-26T08:42:20.182Z,11.50
2023-07-26T08:44:51.527Z,5.50
2023-07-26T08:47:20.605Z,7.55
2023-07-26T08:49:50.269Z,6.90
2023-07-26T08:52:18.446Z,4.82
2023-07-26T08:54:48.165Z,3.65
2023-07-26T08:57:16.988Z,4.47
2023-07-26T08:59:44.969Z,4.47
2023-07-26T09:02:14.842Z,4.32
2023-07-26T09:04:43.245Z,6.00
2023-07-26T09:07:13.404Z,6.40
2023-07-26T09:09:41.254Z,4.82
2023-07-26T09:12:09.566Z,4.50
2023-07-26T09:14:37.522Z,4.47
2023-07-26T09:17:06.322Z,3.28
2023-07-26T09:19:35.031Z,1.98
2023-07-26T09:22:03.886Z,3.33
2023-07-26T09:24:35.173Z,2.78
2023-07-26T09:27:04.897Z,2.03
2023-07-26T09:29:32.836Z,2.15
2023-07-26T09:32:01.138Z,1.70
2023-07-26T09:34:30.980Z,1.83
2023-07-26T09:36:59.693Z,1.75
2023-07-26T09:39:29.875Z,1.73
2023-07-26T09:42:06.969Z,1.60
2023-07-26T09:44:35.785Z,3.25
2023-07-26T09:47:04.574Z,2.00
2023-07-26T09:49:32.765Z,3.33
2023-07-26T09:54:34.415Z,2.05
2023-07-26T09:57:04.226Z,2.38
2023-07-26T09:59:35.287Z,3.90
2023-07-26T10:02:07.872Z,3.17
2023-07-26T10:04:40.259Z,4.18
2023-07-26T10:07:10.547Z,2.60
2023-07-26T10:09:41.832Z,2.88
2023-07-26T10:12:10.761Z,2.90
2023-07-26T10:14:40.435Z,3.33
2023-07-26T10:17:08.724Z,2.60
2023-07-26T10:19:37.756Z,3.17
2023-07-26T10:22:05.926Z,3.72
2023-07-26T10:24:35.523Z,3.63
2023-07-26T10:27:03.980Z,4.28
2023-07-26T10:29:32.064Z,3.30
2023-07-26T10:32:06.055Z,3.67
2023-07-26T10:34:34.057Z,3.75
2023-07-26T10:37:14.712Z,3.25
2023-07-26T10:39:45.217Z,3.60
2023-07-26T10:42:23.853Z,3.22
2023-07-26T10:44:51.992Z,4.60
2023-07-26T10:47:21.886Z,4.85
2023-07-26T10:49:49.940Z,4.03
2023-07-26T10:52:18.171Z,4.88
2023-07-26T10:54:47.535Z,4.57
2023-07-26T10:57:16.868Z,4.63
2023-07-26T10:59:56.907Z,6.38
2023-07-26T11:02:44.542Z,3.92
2023-07-26T11:05:13.981Z,2.70
2023-07-26T11:07:55.193Z,2.45
2023-07-26T11:12:51.965Z,1.73
2023-07-26T11:16:11.410Z,3.42
2023-07-26T11:18:19.968Z,2.00
2023-07-26T11:20:48.885Z,3.25
2023-07-26T11:23:20.418Z,2.97
2023-07-26T11:25:48.677Z,2.97
2023-07-26T11:28:17.051Z,3.70
2023-07-26T11:30:48.044Z,3.33
2023-07-26T11:33:26.410Z,4.90
2023-07-26T11:35:55.788Z,3.17
2023-07-26T11:38:23.868Z,2.22
2023-07-26T11:40:54.185Z,2.72
2023-07-26T11:43:22.561Z,3.20
2023-07-26T11:45:50.631Z,3.55
2023-07-26T11:48:18.744Z,3.35
2023-07-26T11:50:46.926Z,2.83
2023-07-26T11:53:28.182Z,2.20
2023-07-26T11:56:05.182Z,2.38
2023-07-26T11:58:34.688Z,3.30
2023-07-26T12:01:03.509Z,4.88
2023-07-26T12:03:31.973Z,3.10
2023-07-26T12:06:04.173Z,3.40
2023-07-26T12:08:36.038Z,4.65
2023-07-26T12:11:07.287Z,5.18
2023-07-26T12:13:36.596Z,5.38
2023-07-26T12:16:05.647Z,5.18
2023-07-26T12:18:34.168Z,6.43
2023-07-26T12:21:05.809Z,5.13
2023-07-26T12:23:51.029Z,5.72
2023-07-26T12:26:20.602Z,4.53
2023-07-26T12:28:49.118Z,5.28
2023-07-26T12:31:21.316Z,6.07
2023-07-26T12:33:59.216Z,5.60
2023-07-26T12:36:29.173Z,5.13
2023-07-26T12:38:57.410Z,5.13
2023-07-26T12:41:26.893Z,6.63
2023-07-26T12:43:57.006Z,3.58
2023-07-26T12:46:25.340Z,4.07
2023-07-26T12:48:55.147Z,4.22
2023-07-26T12:51:23.196Z,4.10
2023-07-26T12:53:51.218Z,4.05
2023-07-26T12:56:19.227Z,3.85
2023-07-26T12:59:04.805Z,5.47
2023-07-26T13:01:34.907Z,4.75
2023-07-26T13:04:03.173Z,3.20
2023-07-26T13:06:31.677Z,3.65
2023-07-26T13:09:00.053Z,4.60
2023-07-26T13:11:28.224Z,4.45
2023-07-26T13:13:59.032Z,3.63
2023-07-26T13:16:29.546Z,3.07
2023-07-26T13:18:59.659Z,4.22
2023-07-26T13:21:27.752Z,4.00
2023-07-26T13:23:56.011Z,2.60
2023-07-26T13:26:23.972Z,3.85
2023-07-26T13:28:52.026Z,3.40
2023-07-26T13:31:21.651Z,3.45
2023-07-26T13:33:50.642Z,3.35
2023-07-26T13:36:20.469Z,3.97
2023-07-26T13:38:48.447Z,4.93
2023-07-26T13:41:16.622Z,4.00
2023-07-26T13:43:44.583Z,4.50
2023-07-26T13:48:45.212Z,4.60
2023-07-26T13:51:13.354Z,3.63
2023-07-26T13:53:41.329Z,3.47
2023-07-26T13:56:10.112Z,4.30
2023-07-26T13:58:38.090Z,3.20
2023-07-26T14:01:06.103Z,3.75
2023-07-26T14:03:34.257Z,2.60
2023-07-26T14:06:03.690Z,3.72
2023-07-26T14:08:31.608Z,4.03
2023-07-26T14:10:59.554Z,4.57
2023-07-26T14:13:27.998Z,3.03
2023-07-26T14:16:07.528Z,4.88
2023-07-26T14:18:43.922Z,4.80
2023-07-26T14:21:13.350Z,4.32
2023-07-26T14:23:41.365Z,3.78
2023-07-26T14:26:09.293Z,2.92
2023-07-26T14:28:37.185Z,4.43
2023-07-26T14:31:05.271Z,3.38
2023-07-26T14:33:33.337Z,4.20
2023-07-26T14:36:01.299Z,3.28
2023-07-26T14:38:30.583Z,3.20
2023-07-26T14:40:58.747Z,5.53
2023-07-26T14:43:27.108Z,3.10
2023-07-26T14:45:55.156Z,4.18
2023-07-26T14:48:23.126Z,3.97
2023-07-26T14:50:51.277Z,3.13
2023-07-26T14:53:19.234Z,2.45
2023-07-26T14:55:48.568Z,8.70
2023-07-26T14:58:16.617Z,4.35
2023-07-26T15:00:44.924Z,4.63
2023-07-26T15:03:13.267Z,4.97
2023-07-26T15:05:46.301Z,4.93
2023-07-26T15:08:14.585Z,5.60
2023-07-26T15:10:42.678Z,3.47
2023-07-26T15:13:11.975Z,2.75
2023-07-26T15:15:41.206Z,3.42
2023-07-26T15:18:09.198Z,3.25
2023-07-26T15:20:37.202Z,3.58
2023-07-26T15:23:05.202Z,4.18
2023-07-26T15:25:33.247Z,2.38
2023-07-26T15:28:01.337Z,7.15
2023-07-26T15:30:30.660Z,3.92
2023-07-26T15:32:58.748Z,2.97
2023-07-26T15:35:27.100Z,4.60
2023-07-26T15:37:55.013Z,3.65
2023-07-26T15:40:25.630Z,3.65
2023-07-26T15:45:25.175Z,2.58
2023-07-26T15:47:54.515Z,3.35
2023-07-26T15:50:28.762Z,2.72
2023-07-26T15:52:57.262Z,2.15
2023-07-26T15:55:25.229Z,4.50
2023-07-26T15:57:53.355Z,2.60
2023-07-26T16:00:21.399Z,2.85
2023-07-26T16:10:24.088Z,2.90
2023-07-26T16:12:52.391Z,4.13
2023-07-26T16:20:24.145Z,3.03
2023-07-26T16:22:52.255Z,4.00
2023-07-26T16:25:20.194Z,3.10
2023-07-26T16:27:48.127Z,3.15
2023-07-26T16:30:16.217Z,3.00
2023-07-26T16:32:44.369Z,2.35
2023-07-26T16:35:12.484Z,2.88
2023-07-26T16:37:41.775Z,3.53
2023-07-26T16:40:11.773Z,2.53
2023-07-26T16:42:39.808Z,3.53
2023-07-26T16:45:08.249Z,5.78
2023-07-26T16:47:36.698Z,4.43
2023-07-26T16:50:04.768Z,4.20
2023-07-26T16:52:32.843Z,2.95
2023-07-26T16:55:02.388Z,2.90
2023-07-26T16:57:30.355Z,3.38
2023-07-26T16:59:58.358Z,3.58
2023-07-26T17:02:26.554Z,2.97
2023-07-26T17:04:54.954Z,3.00
2023-07-26T17:07:22.932Z,4.10
2023-07-26T17:09:50.860Z,5.35
2023-07-26T17:12:20.140Z,3.15
2023-07-26T17:14:48.202Z,3.10
2023-07-26T17:17:16.299Z,2.88
2023-07-26T17:19:44.705Z,3.70
2023-07-26T17:22:12.747Z,5.47
2023-07-26T17:24:40.720Z,4.57
2023-07-26T17:27:08.785Z,2.97
2023-07-26T17:29:38.242Z,2.92
2023-07-26T17:32:06.735Z,2.80
2023-07-26T17:34:35.229Z,3.05
2023-07-26T17:37:03.235Z,4.75
2023-07-26T17:39:31.223Z,3.28
2023-07-26T17:41:59.172Z,3.08
2023-07-26T17:44:27.211Z,3.38
2023-07-26T17:46:57.067Z,4.07
2023-07-26T17:49:25.133Z,4.75
2023-07-26T17:51:53.126Z,3.95
2023-07-26T17:54:21.309Z,2.55
2023-07-26T17:56:51.625Z,5.47
2023-07-26T17:59:20.440Z,2.72
2023-07-26T18:01:48.464Z,4.00
2023-07-26T18:04:17.865Z,3.75
2023-07-26T18:06:45.893Z,3.78
2023-07-26T18:09:14.170Z,3.22
2023-07-26T18:11:42.391Z,4.18
2023-07-26T18:14:10.636Z,3.28
2023-07-26T18:16:39.058Z,2.90
2023-07-26T18:19:07.025Z,4.13
2023-07-26T18:21:36.415Z,4.35
2023-07-26T18:24:06.287Z,6.05
2023-07-26T18:26:34.211Z,2.47
2023-07-26T18:29:02.225Z,3.30
2023-07-26T18:31:33.505Z,3.40
2023-07-26T18:34:01.608Z,3.70
2023-07-26T18:36:29.638Z,3.65
2023-07-26T18:38:59.521Z,4.13
2023-07-26T18:41:27.485Z,4.13
2023-07-26T18:43:55.430Z,6.78
2023-07-26T18:46:23.463Z,4.18
2023-07-26T18:48:51.518Z,3.92
2023-07-26T18:51:20.250Z,3.25
2023-07-26T18:53:48.295Z,5.00
2023-07-26T18:56:17.644Z,3.30
2023-07-26T18:58:45.615Z,2.90
2023-07-26T19:01:14.926Z,3.45
2023-07-26T19:03:43.164Z,2.88
2023-07-26T19:06:11.154Z,3.15
2023-07-26T19:08:39.646Z,6.00
2023-07-26T19:11:07.685Z,2.85
2023-07-26T19:13:37.139Z,2.92
2023-07-26T19:16:05.333Z,3.55
2023-07-26T19:18:33.259Z,4.82
2023-07-26T19:21:01.666Z,2.90
2023-07-26T19:23:29.703Z,5.20
2023-07-26T19:25:57.736Z,3.55
2023-07-26T19:28:25.889Z,3.50
2023-07-26T19:30:55.357Z,3.75
2023-07-26T19:33:23.289Z,5.68
2023-07-26T19:35:57.574Z,5.90
2023-07-26T19:38:26.193Z,5.38
2023-07-26T19:41:00.730Z,7.18
2023-07-26T19:43:28.678Z,5.13
2023-07-26T19:45:58.060Z,4.55
2023-07-26T19:48:26.414Z,4.82
2023-07-26T19:50:54.438Z,2.92
2023-07-26T19:53:22.523Z,4.47
2023-07-26T19:55:50.876Z,3.90
2023-07-26T19:58:19.115Z,5.03
2023-07-26T20:00:47.099Z,3.92
2023-07-26T20:03:16.574Z,3.95
2023-07-26T20:05:46.556Z,9.38
2023-07-26T20:08:17.171Z,3.97
2023-07-26T20:10:45.965Z,5.30
2023-07-26T20:13:14.205Z,6.32
2023-07-26T20:15:42.326Z,6.22
2023-07-26T20:18:10.737Z,3.30
2023-07-26T20:20:40.309Z,5.68
2023-07-26T20:23:08.310Z,5.03
2023-07-26T20:25:36.396Z,4.80
2023-07-26T20:28:04.846Z,4.13
2023-07-26T20:30:33.716Z,3.90
2023-07-26T20:33:01.659Z,3.83
2023-07-26T20:35:29.709Z,6.22
2023-07-26T20:37:59.024Z,4.05
2023-07-26T20:40:26.961Z,4.30
2023-07-26T20:42:54.964Z,4.38
2023-07-26T20:45:22.945Z,4.57
2023-07-26T20:47:51.029Z,6.70
2023-07-26T20:50:19.148Z,4.97
2023-07-26T20:52:47.064Z,5.32
2023-07-26T20:55:16.495Z,5.60
2023-07-26T20:57:44.455Z,4.28
2023-07-26T21:00:15.429Z,4.43
2023-07-26T21:02:43.466Z,3.53
2023-07-26T21:05:11.943Z,5.18
2023-07-26T21:07:39.953Z,4.68
2023-07-26T21:10:08.044Z,6.43
2023-07-26T21:12:38.865Z,4.70
2023-07-26T21:15:07.577Z,3.65
2023-07-26T21:17:35.532Z,4.30
2023-07-26T21:20:03.508Z,4.80
2023-07-26T21:22:32.351Z,5.10
2023-07-26T21:25:00.331Z,4.55
2023-07-26T21:27:28.941Z,3.72
2023-07-26T21:29:58.359Z,5.32
2023-07-26T21:32:26.377Z,4.13
2023-07-26T21:34:54.371Z,4.20
2023-07-26T21:37:22.327Z,5.32
2023-07-26T21:39:50.348Z,5.38
2023-07-26T21:42:18.349Z,5.57
2023-07-26T21:44:46.429Z,3.45
2023-07-26T21:47:15.741Z,5.45
2023-07-26T21:49:43.616Z,3.85
2023-07-26T21:52:11.604Z,4.55
2023-07-26T21:54:39.682Z,5.40
2023-07-26T21:57:08.019Z,4.85
2023-07-26T21:59:36.012Z,3.33
2023-07-26T22:02:04.294Z,4.47
2023-07-26T22:04:33.740Z,3.80
2023-07-26T22:07:01.709Z,3.90
2023-07-26T22:09:29.695Z,4.25
2023-07-26T22:11:57.707Z,4.32
2023-07-26T22:14:25.686Z,5.20
2023-07-26T22:16:53.871Z,4.93
2023-07-26T22:19:21.977Z,5.93
2023-07-26T22:21:51.232Z,7.10
2023-07-26T22:24:19.358Z,5.85
2023-07-26T22:26:48.552Z,7.32
2023-07-26T22:29:16.630Z,4.55
2023-07-26T22:31:44.681Z,6.32
2023-07-26T22:34:12.673Z,5.82
2023-07-26T22:36:40.664Z,5.85
2023-07-26T22:39:10.044Z,5.63
2023-07-26T22:41:37.958Z,5.28
2023-07-26T22:44:06.106Z,6.43
2023-07-26T22:46:34.418Z,6.80
2023-07-26T22:49:02.803Z,7.72
2023-07-26T22:51:31.103Z,6.05
2023-07-26T22:53:59.519Z,5.28
2023-07-26T22:56:28.854Z,8.38
2023-07-26T22:58:56.794Z,6.25
2023-07-26T23:01:25.820Z,7.68
2023-07-26T23:03:53.861Z,8.00
2023-07-26T23:06:21.818Z,6.13
2023-07-26T23:08:49.923Z,4.90
2023-07-26T23:11:17.998Z,6.88
2023-07-26T23:13:47.330Z,6.47
2023-07-26T23:16:15.452Z,7.38
2023-07-26T23:18:43.525Z,5.65
2023-07-26T23:21:11.491Z,4.38
2023-07-26T23:23:39.473Z,6.15
2023-07-26T23:26:07.495Z,6.07
2023-07-26T23:28:35.475Z,5.45
2023-07-26T23:31:07.237Z,6.80
2023-07-26T23:33:35.485Z,6.38
2023-07-26T23:36:03.540Z,5.00
2023-07-26T23:38:31.604Z,6.07
2023-07-26T23:41:00.977Z,5.90
2023-07-26T23:43:29.038Z,6.32
2023-07-26T23:45:57.087Z,7.07
2023-07-26T23:48:26.476Z,5.82
2023-07-26T23:50:54.440Z,5.03
2023-07-26T23:53:22.438Z,10.18
2023-07-26T23:55:50.519Z,4.78
2023-07-26T23:58:18.712Z,5.57
